Time;durP1;ratioP1;P1;durP2;ratioP2;P2;SDS_P1;SDS_P2;PMS_P1;PMS_P2;Temp;Humidity;BMP_temperature;BMP_pressure;BME280_temperature;BME280_humidity;BME280_pressure;Samples;Min_cycle;Max_cycle;Signal;HPM_P1;HPM_P2
2022/04/19 00:02:28;;;;;;;4.22;1.55;;;;;;;10.99;37.30;100506.84;5014519;28;20057;-84
2022/04/19 00:05:12;;;;;;;4.53;2.10;;;;;;;10.98;38.05;100497.88;5014191;28;20045;-83
2022/04/19 00:07:59;;;;;;;4.80;1.45;;;;;;;10.81;38.10;100494.41;5016222;28;20521;-85
2022/04/19 00:10:43;;;;;;;4.28;2.00;;;;;;;10.77;38.52;100499.66;5014892;28;20068;-85
2022/04/19 00:13:28;;;;;;;2.67;1.48;;;;;;;10.69;38.49;100492.31;5018944;28;20056;-84
2022/04/19 00:16:14;;;;;;;2.70;1.50;;;;;;;10.70;37.98;100488.47;5000620;28;20049;-85
2022/04/19 00:18:59;;;;;;;5.97;1.65;;;;;;;10.68;38.23;100502.41;5007398;28;20057;-82
2022/04/19 00:21:44;;;;;;;;;;;;;;;10.54;38.84;100490.88;5008172;28;20049;-85
2022/04/19 00:24:29;;;;;;;4.28;2.15;;;;;;;10.41;39.48;100496.50;4998529;28;19913;-83
2022/04/19 00:27:14;;;;;;;3.50;2.17;;;;;;;10.34;39.53;100486.09;5014478;28;20049;-84
2022/04/19 00:29:59;;;;;;;2.40;1.42;;;;;;;10.26;39.42;100487.66;5020025;28;20060;-84
2022/04/19 00:32:44;;;;;;;10.50;1.38;;;;;;;10.13;39.74;100490.50;5006192;28;20049;-84
2022/04/19 00:35:29;;;;;;;2.92;1.50;;;;;;;10.20;39.47;100483.53;5023697;28;20068;-84
2022/04/19 00:38:14;;;;;;;1.88;1.27;;;;;;;9.93;40.09;100486.47;5020950;28;20521;-85
2022/04/19 00:40:59;;;;;;;4.63;1.33;;;;;;;9.87;40.62;100485.03;5025496;28;20052;-85
2022/04/19 00:43:45;;;;;;;4.28;2.10;;;;;;;9.75;40.73;100477.47;5021144;28;20052;-83
2022/04/19 00:46:30;;;;;;;3.28;1.80;;;;;;;9.70;41.14;100483.03;5019095;28;20060;-85
2022/04/19 00:49:17;;;;;;;;;;;;;;;9.76;41.27;100484.50;5024245;28;20048;-85
2022/04/19 00:52:03;;;;;;;5.28;2.50;;;;;;;9.74;41.22;100481.31;5021544;28;19912;-85
2022/04/19 00:54:48;;;;;;;5.22;2.33;;;;;;;9.83;41.15;100470.47;5024824;28;20045;-82
2022/04/19 00:57:36;;;;;;;3.05;2.08;;;;;;;9.59;42.07;100470.09;5002815;28;20415;-83
2022/04/19 01:00:21;;;;;;;6.32;2.13;;;;;;;9.66;41.50;100476.66;5015406;28;20422;-82
2022/04/19 01:03:16;;;;;;;3.63;2.78;;;;;;;9.78;41.76;100473.34;4999127;28;20419;-82
2022/04/19 01:06:01;;;;;;;4.10;2.38;;;;;;;9.54;41.84;100462.91;5018859;28;20045;-82
2022/04/19 01:08:46;;;;;;;;;;;;;;;9.54;41.95;100470.22;5019341;28;20417;-84
2022/04/19 01:14:36;;;;;;;5.75;2.42;;;;;;;9.13;43.64;100465.91;5024972;28;20040;-82
2022/04/19 01:17:22;;;;;;;6.07;2.35;;;;;;;9.19;43.97;100456.53;5019049;28;20045;-84
2022/04/19 01:20:09;;;;;;;7.50;2.13;;;;;;;9.21;43.88;100453.47;5032891;28;20049;-83
2022/04/19 01:22:54;;;;;;;2.70;2.17;;;;;;;8.97;44.87;100460.06;5024658;28;20045;-83
2022/04/19 01:25:43;;;;;;;6.65;3.35;;;;;;;9.13;44.00;100457.78;5024781;28;20052;-84
2022/04/19 01:28:28;;;;;;;6.30;2.40;;;;;;;9.15;44.00;100447.38;5032446;28;20052;-84
2022/04/19 01:31:13;;;;;;;4.15;2.13;;;;;;;9.14;43.89;100448.53;5021499;28;20060;-84
2022/04/19 01:34:05;;;;;;;6.53;2.22;;;;;;;9.15;44.44;100452.81;5024497;28;20045;-81
2022/04/19 01:36:50;;;;;;;3.13;2.00;;;;;;;9.00;44.65;100451.31;5032385;28;20512;-84
2022/04/19 01:42:39;;;;;;;2.70;1.92;;;;;;;8.83;45.38;100436.88;5019100;28;20053;-83
2022/04/19 01:45:26;;;;;;;2.20;1.15;;;;;;;8.82;45.23;100435.25;5033758;28;20095;-84
2022/04/19 01:48:15;;;;;;;5.60;1.90;;;;;;;8.74;45.74;100433.28;5019716;28;20516;-83
2022/04/19 01:51:00;;;;;;;14.52;2.35;;;;;;;8.61;45.82;100426.84;5032599;28;20053;-86
2022/04/19 01:53:44;;;;;;;5.97;1.52;;;;;;;8.74;45.52;100422.44;5032952;28;20417;-85
2022/04/19 01:56:29;;;;;;;3.38;2.72;;;;;;;8.67;45.67;100422.09;5020710;28;20513;-82
2022/04/19 01:59:32;;;;;;;4.53;1.73;;;;;;;8.71;45.51;100425.78;5023327;28;20056;-84
2022/04/19 02:02:31;;;;;;;4.30;1.88;;;;;;;8.74;45.00;100422.44;5032394;28;20120;-84
2022/04/19 02:05:17;;;;;;;2.50;1.90;;;;;;;8.52;45.29;100415.94;5019287;28;20524;-84
2022/04/19 02:08:03;;;;;;;3.42;1.70;;;;;;;8.55;45.63;100418.03;5032082;28;20052;-84
2022/04/19 02:10:50;;;;;;;2.72;1.85;;;;;;;8.72;45.58;100414.63;5023742;28;20508;-84
2022/04/19 02:13:36;;;;;;;4.45;1.67;;;;;;;8.57;45.64;100407.69;5024105;28;20053;-84
2022/04/19 02:16:34;;;;;;;16.15;2.88;;;;;;;8.63;45.33;100415.69;5022350;28;20056;-83
2022/04/19 02:19:20;;;;;;;2.63;1.75;;;;;;;8.49;45.58;100416.53;5035245;28;20053;-84
2022/04/19 02:22:06;;;;;;;2.28;1.60;;;;;;;8.43;45.85;100406.94;5031775;28;20056;-84
2022/04/19 02:24:51;;;;;;;4.65;2.00;;;;;;;8.28;46.40;100409.22;5023891;28;20052;-84
2022/04/19 02:27:37;;;;;;;3.65;1.35;;;;;;;8.26;46.36;100406.78;5020162;28;20281;-84
2022/04/19 02:30:22;;;;;;;2.47;1.98;;;;;;;8.37;46.57;100401.97;5023907;28;20048;-82
2022/04/19 02:33:14;;;;;;;1.85;1.60;;;;;;;8.54;45.88;100397.44;5023911;28;20128;-84
2022/04/19 02:35:59;;;;;;;3.53;1.33;;;;;;;8.52;46.08;100393.47;5020285;28;20052;-84
2022/04/19 02:38:44;;;;;;;2.00;1.27;;;;;;;8.44;46.43;100391.47;5017800;28;20588;-84
2022/04/19 02:41:29;;;;;;;2.22;1.40;;;;;;;8.25;47.12;100388.94;5022786;28;20441;-83
2022/04/19 02:44:19;;;;;;;8.48;2.03;;;;;;;8.29;46.38;100392.63;5023868;28;20052;-84
2022/04/19 02:47:26;;;;;;;5.13;1.73;;;;;;;8.32;45.84;100394.78;5032349;28;20048;-85
2022/04/19 02:50:12;;;;;;;3.20;1.33;;;;;;;8.33;45.91;100388.22;5023714;28;20048;-84
2022/04/19 02:52:57;;;;;;;2.70;1.45;;;;;;;8.41;46.18;100389.41;5032065;28;20413;-82
2022/04/19 02:55:42;;;;;;;6.90;1.35;;;;;;;8.69;44.97;100398.16;5031706;28;20056;-85
2022/04/19 02:58:27;;;;;;;3.60;1.58;;;;;;;8.59;45.14;100383.78;5032043;28;20151;-83
2022/04/19 03:01:13;;;;;;;2.85;2.25;;;;;;;8.52;44.95;100383.44;5019075;28;20049;-81
2022/04/19 03:04:00;;;;;;;6.03;2.08;;;;;;;8.54;44.38;100374.97;5031729;28;20064;-82
2022/04/19 03:06:45;;;;;;;6.28;1.92;;;;;;;8.62;44.42;100376.16;5021351;28;20086;-83
2022/04/19 03:09:29;;;;;;;5.40;1.17;;;;;;;8.46;44.71;100370.31;5031801;28;20044;-83
2022/04/19 03:12:16;;;;;;;2.10;1.15;;;;;;;8.66;43.97;100374.41;4997886;28;20057;-82
2022/04/19 03:15:15;;;;;;;3.03;1.83;;;;;;;8.63;43.86;100372.34;5015158;28;20053;-84
2022/04/19 03:18:01;;;;;;;4.93;2.00;;;;;;;8.51;44.25;100360.16;5013852;28;20057;-83
2022/04/19 03:20:50;;;;;;;8.77;1.70;;;;;;;8.61;43.80;100363.69;5023012;28;20307;-82
2022/04/19 03:29:47;;;;;;;3.88;1.60;;;;;;;8.36;44.77;100349.69;5023741;28;20044;-84
2022/04/19 03:32:32;;;;;;;5.53;1.98;;;;;;;8.39;44.83;100354.47;5019056;28;20052;-84
2022/04/19 03:35:17;;;;;;;3.03;1.10;;;;;;;8.52;44.62;100350.91;5025743;28;20057;-83
2022/04/19 03:38:04;;;;;;;3.38;1.30;;;;;;;8.17;45.22;100351.78;5023015;28;20049;-82
2022/04/19 03:40:49;;;;;;;5.07;1.50;;;;;;;8.40;44.95;100355.28;5022817;28;20053;-82
2022/04/19 03:43:41;;;;;;;5.63;1.55;;;;;;;8.40;45.14;100355.28;5026380;28;20410;-84
2022/04/19 03:46:26;;;;;;;3.72;2.17;;;;;;;8.32;45.06;100348.72;5026602;28;20520;-83
2022/04/19 03:49:10;;;;;;;3.47;1.50;;;;;;;8.48;44.41;100352.63;5026546;28;20048;-85
2022/04/19 03:51:56;;;;;;;5.20;1.92;;;;;;;8.31;45.10;100344.41;5020299;28;20056;-81
2022/04/19 03:54:42;;;;;;;1.55;1.02;;;;;;;8.39;44.92;100340.94;5024245;28;20529;-82
2022/04/19 03:57:27;;;;;;;3.85;1.20;;;;;;;8.30;44.83;100345.50;5034599;28;20060;-81
2022/04/19 04:00:13;;;;;;;3.03;1.55;;;;;;;8.46;44.02;100335.88;5018772;28;20045;-81
2022/04/19 04:03:01;;;;;;;4.63;1.40;;;;;;;8.58;43.73;100332.63;5029862;28;20044;-83
2022/04/19 04:05:47;;;;;;;4.10;2.80;;;;;;;8.37;44.33;100331.53;5010487;28;20053;-83
2022/04/19 04:08:32;;;;;;;1.88;1.30;;;;;;;8.46;44.27;100335.88;5019336;28;20056;-83
2022/04/19 04:11:18;;;;;;;10.77;3.50;;;;;;;8.35;44.80;100329.13;5022589;28;20052;-81
2022/04/19 04:14:11;;;;;;;4.47;2.97;;;;;;;8.37;44.27;100329.63;5025839;28;20048;-84
2022/04/19 04:16:57;;;;;;;5.10;1.70;;;;;;;8.54;43.88;100328.91;5019280;28;20048;-83
2022/04/19 04:19:43;;;;;;;11.18;1.67;;;;;;;8.53;42.84;100335.47;5023476;28;20052;-83
2022/04/19 04:22:32;;;;;;;3.65;1.60;;;;;;;8.50;43.50;100331.44;5024904;28;20044;-84
2022/04/19 04:25:18;;;;;;;3.25;2.33;;;;;;;8.52;43.51;100340.06;5019362;28;20532;-85
2022/04/19 04:28:04;;;;;;;2.60;1.65;;;;;;;8.74;43.11;100327.56;5021492;28;20044;-83
2022/04/19 04:30:58;;;;;;;2.00;1.50;;;;;;;8.61;43.40;100321.13;5035326;22;20069;-82
2022/04/19 04:33:43;;;;;;;3.80;1.35;;;;;;;8.67;43.00;100322.63;5006561;28;20191;-81
2022/04/19 04:36:28;;;;;;;2.53;0.85;;;;;;;8.89;42.02;100319.81;5001787;28;20049;-81
2022/04/19 04:39:14;;;;;;;2.53;1.27;;;;;;;9.01;42.10;100313.81;5018099;28;20057;-81
2022/04/19 04:42:18;;;;;;;2.80;1.67;;;;;;;8.91;42.49;100314.09;4996198;28;20061;-80
2022/04/19 04:45:03;;;;;;;2.90;1.10;;;;;;;8.96;42.11;100312.03;4995597;28;20061;-80
2022/04/19 04:50:51;;;;;;;1.80;1.50;;;;;;;8.92;42.79;100318.41;4998414;28;20045;-80
2022/04/19 04:53:36;;;;;;;3.97;1.65;;;;;;;8.96;43.29;100311.22;4991473;28;20411;-81
2022/04/19 04:56:31;;;;;;;3.80;1.80;;;;;;;8.91;43.43;100319.50;4997979;28;20049;-81
2022/04/19 04:59:16;;;;;;;7.72;1.90;;;;;;;8.56;44.29;100319.38;4997437;28;20049;-82
2022/04/19 05:02:01;;;;;;;2.37;1.30;;;;;;;8.70;44.50;100313.03;5002951;28;20411;-81
2022/04/19 05:04:46;;;;;;;6.00;1.98;;;;;;;8.59;45.54;100317.94;4998643;28;20589;-82
2022/04/19 05:07:30;;;;;;;2.58;1.48;;;;;;;8.69;45.56;100314.16;5002625;28;20057;-82
2022/04/19 05:10:17;;;;;;;4.25;2.05;;;;;;;8.80;44.72;100315.47;5000926;28;20065;-82
2022/04/19 05:13:02;;;;;;;6.30;1.50;;;;;;;9.04;44.17;100315.09;5003141;28;20049;-82
2022/04/19 05:15:47;;;;;;;8.30;1.90;;;;;;;9.20;43.53;100311.63;4991746;28;20057;-81
2022/04/19 05:18:33;;;;;;;7.82;3.30;;;;;;;9.51;43.18;100306.09;5000618;28;20069;-82
2022/04/19 05:21:18;;;;;;;10.25;3.30;;;;;;;9.18;44.27;100310.34;4993399;28;20046;-82
2022/04/19 05:24:05;;;;;;;6.85;3.72;;;;;;;9.42;43.22;100303.38;4979119;28;20058;-81
2022/04/19 05:26:50;;;;;;;15.73;3.80;;;;;;;9.63;43.30;100305.47;4995388;28;20050;-81
2022/04/19 05:29:35;;;;;;;3.25;2.20;;;;;;;9.79;43.18;100301.16;4999527;28;20065;-81
2022/04/19 05:32:20;;;;;;;9.02;2.70;;;;;;;9.58;43.79;100305.63;5001809;28;20049;-80
2022/04/19 05:35:06;;;;;;;7.18;3.00;;;;;;;9.59;44.30;100304.50;5006475;28;20057;-80
2022/04/19 05:37:52;;;;;;;15.57;2.40;;;;;;;9.71;44.36;100310.88;5016840;28;20053;-81
2022/04/19 05:40:41;;;;;;;10.43;1.95;;;;;;;9.59;44.91;100302.59;5001571;28;20049;-81
2022/04/19 05:43:28;;;;;;;7.57;2.97;;;;;;;10.00;44.66;100307.53;5016748;28;20057;-82
2022/04/19 05:46:16;;;;;;;7.57;2.35;;;;;;;10.11;45.33;100307.97;5003478;28;20044;-83
2022/04/19 05:49:04;;;;;;;6.47;2.33;;;;;;;9.94;45.84;100310.75;5002123;28;20057;-82
2022/04/19 05:51:50;;;;;;;8.27;2.00;;;;;;;10.33;44.71;100309.75;5004436;28;20048;-80
2022/04/19 05:54:35;;;;;;;17.15;2.72;;;;;;;10.34;45.74;100308.63;4989370;28;20053;-81
2022/04/19 05:57:19;;;;;;;6.00;1.83;;;;;;;10.55;45.32;100306.81;4996425;28;20050;-82
2022/04/19 06:00:05;;;;;;;3.42;1.65;;;;;;;10.47;46.09;100310.34;4986619;28;20426;-82
2022/04/19 06:06:05;;;;;;;5.03;2.17;;;;;;;10.59;45.32;100314.00;4987581;28;20533;-81
2022/04/19 06:08:51;;;;;;;9.82;2.60;;;;;;;10.83;45.35;100307.97;5002996;28;20053;-82
2022/04/19 06:11:36;;;;;;;8.32;2.35;;;;;;;10.99;44.49;100305.50;4997517;28;20045;-83
2022/04/19 06:14:21;;;;;;;6.75;2.10;;;;;;;10.74;45.24;100301.78;4987666;28;20410;-81
2022/04/19 06:17:06;;;;;;;9.70;1.65;;;;;;;11.08;45.12;100303.53;4999707;28;20057;-82
2022/04/19 06:19:52;;;;;;;18.35;3.03;;;;;;;10.80;45.76;100303.19;4984075;28;20065;-83
2022/04/19 06:22:38;;;;;;;5.95;2.10;;;;;;;10.89;45.21;100305.88;5002052;28;20069;-81
2022/04/19 06:25:29;;;;;;;16.30;2.58;;;;;;;11.02;45.62;100308.38;5000249;28;20050;-83
2022/04/19 06:28:16;;;;;;;35.92;5.22;;;;;;;11.09;45.60;100307.84;4985043;28;20049;-82
2022/04/19 06:31:30;;;;;;;16.55;3.25;;;;;;;11.35;44.55;100303.06;4998148;28;20415;-82
2022/04/19 06:34:23;;;;;;;6.40;2.53;;;;;;;11.59;44.02;100310.56;4984093;28;20061;-81
2022/04/19 06:37:25;;;;;;;16.40;3.50;;;;;;;11.96;43.60;100306.16;5001360;28;20041;-81
2022/04/19 06:40:17;;;;;;;12.85;4.65;;;;;;;12.05;43.68;100300.63;4998521;28;20065;-80
2022/04/19 06:43:02;;;;;;;18.05;5.28;;;;;;;12.24;44.02;100309.09;4997647;28;20050;-81
2022/04/19 06:45:54;;;;;;;13.35;4.10;;;;;;;12.32;43.86;100300.03;5000467;28;20057;-82
2022/04/19 06:48:43;;;;;;;14.43;3.33;;;;;;;12.63;42.75;100303.06;4998948;28;20069;-81
2022/04/19 06:51:30;;;;;;;;;;;;;;;12.76;42.28;100307.38;4997754;28;20053;-82
2022/04/19 06:54:16;;;;;;;66.38;9.68;;;;;;;12.89;43.43;100300.03;4992616;28;19913;-84
2022/04/19 06:57:07;;;;;;;14.85;3.92;;;;;;;12.98;41.00;100305.34;4995496;28;20053;-83
2022/04/19 06:59:52;;;;;;;8.25;2.00;;;;;;;12.75;41.10;100299.53;5006071;28;20691;-85
2022/04/19 07:02:38;;;;;;;17.25;3.05;;;;;;;12.78;40.73;100310.59;5012010;28;20052;-84
2022/04/19 07:05:29;;;;;;;19.17;3.70;;;;;;;12.92;40.84;100312.19;5024515;28;20053;-83
2022/04/19 07:08:13;;;;;;;23.60;3.50;;;;;;;13.06;40.44;100305.22;5028637;28;20061;-83
2022/04/19 07:11:00;;;;;;;30.80;4.28;;;;;;;13.33;40.00;100292.84;5018699;28;20045;-80
2022/04/19 07:14:04;;;;;;;4.82;1.77;;;;;;;13.04;40.01;100301.28;5028735;28;20057;-80
2022/04/19 07:17:09;;;;;;;27.10;6.53;;;;;;;13.39;39.23;100304.34;5030129;28;20505;-83
2022/04/19 07:29:15;;;;;;;245.52;20.92;;;;;;;14.92;35.34;100291.00;5019153;28;20049;-82
2022/04/19 07:32:02;;;;;;;8.27;3.20;;;;;;;15.18;31.74;100293.19;5029022;28;20042;-82
2022/04/19 07:35:06;;;;;;;5.63;1.37;;;;;;;15.98;30.55;100296.13;5033323;28;20052;-81
2022/04/19 07:37:52;;;;;;;28.95;3.17;;;;;;;15.93;30.43;100287.38;5018310;28;20052;-83
2022/04/19 07:40:39;;;;;;;6.05;1.95;;;;;;;18.80;24.41;100290.41;5016701;28;20041;-82
2022/04/19 07:43:24;;;;;;;;;;;;;;;18.79;22.82;100294.31;5031282;28;20054;-81
2022/04/19 07:46:10;;;;;;;29.40;2.35;;;;;;;17.50;24.50;100295.97;5029499;28;19914;-82
2022/04/19 07:48:56;;;;;;;1.65;1.10;;;;;;;16.66;24.94;100292.69;5015589;28;20057;-84
2022/04/19 07:51:43;;;;;;;3.28;1.73;;;;;;;17.08;25.58;100285.16;5014279;28;20041;-82
2022/04/19 07:54:28;;;;;;;4.40;1.35;;;;;;;16.77;25.49;100290.91;5019326;28;20061;-83
2022/04/19 07:57:13;;;;;;;;;;;;;;;16.85;25.23;100287.16;5016771;28;20053;-82
2022/04/19 07:59:58;;;;;;;5.87;1.63;;;;;;;16.41;25.68;100285.94;5026497;28;20208;-82
2022/04/19 08:02:47;;;;;;;7.38;2.30;;;;;;;16.75;25.74;100281.47;5016132;28;20045;-81
2022/04/19 08:05:36;;;;;;;12.02;1.73;;;;;;;15.68;26.83;100279.44;5003067;28;20421;-83
2022/04/19 08:08:21;;;;;;;2.67;0.93;;;;;;;16.25;25.13;100278.59;5014920;28;20501;-82
2022/04/19 08:11:06;;;;;;;5.63;1.50;;;;;;;15.75;26.27;100278.78;5017338;28;20430;-83
2022/04/19 08:13:51;;;;;;;3.22;1.30;;;;;;;16.39;25.71;100277.28;5017332;28;20065;-81
2022/04/19 08:16:36;;;;;;;4.70;1.50;;;;;;;16.29;25.93;100275.16;5013814;28;20052;-82
2022/04/19 08:19:21;;;;;;;4.22;1.75;;;;;;;16.35;25.62;100279.19;5017876;28;20529;-82
2022/04/19 08:22:06;;;;;;;8.13;1.73;;;;;;;17.52;23.50;100281.88;5016041;28;20044;-82
2022/04/19 08:25:00;;;;;;;7.15;1.98;;;;;;;18.59;24.07;100281.94;5028064;28;20049;-83
2022/04/19 08:27:48;;;;;;;12.63;2.97;;;;;;;17.38;23.98;100276.16;5013737;28;20440;-85
2022/04/19 08:30:33;;;;;;;4.90;1.98;;;;;;;17.20;23.92;100280.63;5004388;28;20041;-87
2022/04/19 08:33:19;;;;;;;3.40;2.20;;;;;;;17.61;23.83;100278.88;5014588;28;20057;-87
2022/04/19 08:36:06;;;;;;;6.10;1.63;;;;;;;17.30;23.59;100275.28;5004354;28;20041;-87
2022/04/19 08:38:51;;;;;;;5.78;2.33;;;;;;;17.28;23.67;100279.53;5018493;28;20053;-87
2022/04/19 08:41:37;;;;;;;3.17;1.70;;;;;;;17.74;23.58;100269.19;4997028;28;20053;-87
2022/04/19 08:44:22;;;;;;;4.10;1.30;;;;;;;18.79;21.96;100272.28;5033769;28;20044;-88
2022/04/19 08:47:07;;;;;;;;;;;;;;;19.61;20.80;100273.63;5013479;28;20053;-88
2022/04/19 08:49:54;;;;;;;5.60;1.83;;;;;;;19.98;19.92;100269.84;5028708;28;19913;-89
2022/04/19 08:52:40;;;;;;;3.67;1.63;;;;;;;20.46;18.97;100267.63;5033282;28;20049;-88
2022/04/19 08:58:30;;;;;;;6.78;2.13;;;;;;;25.55;15.53;100284.56;5029419;28;20052;-88
2022/04/19 09:01:15;;;;;;;4.78;2.38;;;;;;;29.49;11.85;100285.81;5013775;28;20041;-88
2022/04/19 09:04:04;;;;;;;5.35;1.70;;;;;;;29.83;11.89;100272.94;5008780;28;20553;-85
2022/04/19 09:06:56;;;;;;;2.90;1.88;;;;;;;31.85;10.14;100280.19;5006547;28;20049;-89
2022/04/19 09:09:42;;;;;;;6.57;1.48;;;;;;;29.50;11.71;100264.94;5005343;28;20060;-88
2022/04/19 09:12:27;;;;;;;3.33;1.40;;;;;;;32.05;9.75;100274.03;5007695;28;20046;-87
2022/04/19 09:15:12;;;;;;;5.10;1.58;;;;;;;33.62;8.63;100269.88;5007400;28;20053;-88
2022/04/19 09:17:57;;;;;;;12.30;1.83;;;;;;;36.69;7.00;100270.44;5010766;28;20052;-87
2022/04/19 09:20:49;;;;;;;5.57;1.42;;;;;;;33.14;8.20;100271.97;5029215;28;20056;-85
2022/04/19 09:23:35;;;;;;;4.10;1.85;;;;;;;32.68;9.19;100263.81;5021548;28;20045;-87
2022/04/19 09:26:19;;;;;;;4.30;1.50;;;;;;;34.22;7.43;100266.59;5020041;28;20516;-87
2022/04/19 09:29:25;;;;;;;8.90;1.75;;;;;;;29.50;10.83;100255.75;5029412;28;20080;-87
2022/04/19 09:32:13;;;;;;;3.80;1.42;;;;;;;28.39;12.18;100244.66;5020004;28;20052;-87
2022/04/19 09:34:58;;;;;;;7.20;2.53;;;;;;;27.74;12.30;100240.66;5012748;28;20048;-88
2022/04/19 09:37:49;;;;;;;3.13;1.70;;;;;;;25.94;13.75;100235.66;5028732;28;20060;-87
2022/04/19 09:40:38;;;;;;;5.82;1.50;;;;;;;30.45;10.62;100243.66;5015298;28;20097;-88
2022/04/19 09:43:24;;;;;;;7.13;1.90;;;;;;;34.83;8.18;100249.81;5017653;28;20056;-88
2022/04/19 09:46:14;;;;;;;7.43;1.50;;;;;;;37.28;6.47;100250.59;5024049;28;20045;-88
2022/04/19 09:48:59;;;;;;;3.08;1.42;;;;;;;32.93;8.59;100235.19;5024056;28;20053;-88
2022/04/19 09:51:44;;;;;;;4.85;1.65;;;;;;;37.41;6.56;100246.53;5005695;28;20049;-88
2022/04/19 09:54:28;;;;;;;2.72;1.50;;;;;;;29.15;10.41;100222.16;5006043;28;20044;-87
2022/04/19 09:57:13;;;;;;;2.13;1.30;;;;;;;30.17;9.69;100228.75;4998777;28;20053;-88
2022/04/19 09:59:59;;;;;;;5.95;1.42;;;;;;;30.23;10.27;100220.50;4992485;28;20053;-84
2022/04/19 10:08:53;;;;;;;3.30;1.47;;;;;;;32.59;8.59;100197.06;5010466;28;20533;-86
2022/04/19 10:11:40;;;;;;;5.05;1.10;;;;;;;35.77;7.14;100197.13;4994580;28;20044;-85
2022/04/19 10:14:25;;;;;;;2.97;1.40;;;;;;;36.88;6.45;100199.91;5001135;28;20057;-85
2022/04/19 10:17:10;;;;;;;8.65;1.50;;;;;;;35.17;7.05;100198.84;5023403;28;20048;-86
2022/04/19 10:19:58;;;;;;;4.43;1.23;;;;;;;36.56;6.73;100195.63;5033424;28;20044;-86
2022/04/19 10:22:48;;;;;;;6.63;1.35;;;;;;;37.09;6.01;100200.53;5018486;28;20048;-86
2022/04/19 10:25:44;;;;;;;5.47;1.65;;;;;;;40.83;4.18;100186.19;5020779;28;20044;-88
2022/04/19 10:28:30;;;;;;;9.20;1.65;;;;;;;38.22;5.46;100186.69;5018414;28;20044;-87
2022/04/19 10:31:37;;;;;;;3.35;1.13;;;;;;;43.19;3.75;100193.75;5058310;22;20060;-79
2022/04/19 10:34:27;;;;;;;4.13;1.45;;;;;;;44.53;3.24;100191.88;5032942;28;20056;-80
2022/04/19 10:37:11;;;;;;;3.10;1.30;;;;;;;41.92;3.94;100172.09;5036419;28;20048;-81
2022/04/19 10:39:59;;;;;;;6.80;1.60;;;;;;;42.69;3.26;100175.56;5038152;28;20056;-81
2022/04/19 10:42:44;;;;;;;3.60;1.20;;;;;;;42.64;3.70;100179.28;5037928;28;20060;-82
2022/04/19 10:45:29;;;;;;;3.63;1.50;;;;;;;43.02;3.33;100171.97;5026479;28;20052;-80
2022/04/19 10:48:16;;;;;;;6.22;1.70;;;;;;;41.10;4.50;100162.22;5043324;28;20045;-80
2022/04/19 10:51:27;;;;;;;79.28;5.80;;;;;;;39.71;5.08;100160.91;5009966;28;20045;-82
2022/04/19 10:54:13;;;;;;;5.15;1.50;;;;;;;41.27;4.42;100159.88;5017277;28;20057;-82
2022/04/19 11:00:23;;;;;;;7.35;1.13;;;;;;;40.52;4.05;100148.44;5037794;28;20045;-82
2022/04/19 11:03:15;;;;;;;4.85;1.38;;;;;;;42.91;4.04;100157.16;5024236;28;20060;-81
2022/04/19 11:06:02;;;;;;;6.07;1.50;;;;;;;42.13;3.88;100159.47;5036086;28;20402;-78
2022/04/19 11:08:49;;;;;;;7.78;1.55;;;;;;;40.39;4.45;100151.16;5034165;28;20528;-79
2022/04/19 11:11:46;;;;;;;8.13;1.70;;;;;;;40.63;4.00;100141.84;5030439;28;20445;-81
2022/04/19 11:14:36;;;;;;;26.13;2.58;;;;;;;44.40;3.23;100159.69;5011429;28;20048;-81
2022/04/19 11:17:26;;;;;;;4.10;1.80;;;;;;;40.42;4.49;100135.84;5012253;28;20045;-83
2022/04/19 11:20:16;;;;;;;5.18;1.60;;;;;;;42.41;3.86;100147.53;5021772;28;20040;-81
2022/04/19 11:23:18;;;;;;;2.63;1.65;;;;;;;42.71;3.46;100141.47;5042673;28;20052;-79
2022/04/19 11:26:04;;;;;;;3.35;1.60;;;;;;;44.59;2.49;100138.00;5011960;28;20041;-82
2022/04/19 11:29:08;;;;;;;5.28;1.50;;;;;;;43.71;2.98;100136.22;5004790;28;20049;-79
2022/04/19 11:31:53;;;;;;;41.88;2.80;;;;;;;46.45;2.61;100126.28;5023842;28;20121;-81
2022/04/19 11:34:37;;;;;;;4.80;1.55;;;;;;;42.15;3.77;100110.34;5037186;28;20052;-82
2022/04/19 11:37:23;;;;;;;5.90;1.30;;;;;;;43.80;3.04;100106.28;5016820;28;20560;-81
2022/04/19 11:49:27;;;;;;;4.20;1.63;;;;;;;43.23;3.43;100097.59;5033573;28;20044;-83
2022/04/19 11:52:13;;;;;;;19.90;2.80;;;;;;;41.49;4.01;100095.97;5031244;28;20059;-84
2022/04/19 11:54:59;;;;;;;6.90;1.85;;;;;;;41.27;4.57;100093.44;5018002;28;20121;-81
2022/04/19 11:57:44;;;;;;;5.47;2.03;;;;;;;42.91;3.89;100094.19;5017074;28;20044;-81
2022/04/19 12:00:29;;;;;;;9.82;1.65;;;;;;;44.84;2.78;100088.72;5034464;28;20048;-82
2022/04/19 12:03:26;;;;;;;2.30;1.38;;;;;;;44.07;2.86;100086.81;5027759;28;20052;-83
2022/04/19 12:06:18;;;;;;;2.90;1.60;;;;;;;40.71;4.04;100082.09;5039381;28;20056;-83
2022/04/19 12:09:04;;;;;;;7.18;1.88;;;;;;;37.66;5.90;100073.19;5037698;28;20045;-81
2022/04/19 12:11:49;;;;;;;7.15;2.63;;;;;;;38.84;5.82;100062.19;5023969;28;20528;-79
2022/04/19 12:14:34;;;;;;;3.42;1.90;;;;;;;41.49;4.56;100069.50;5023465;28;20057;-83
2022/04/19 12:17:20;;;;;;;7.13;2.25;;;;;;;39.69;5.43;100056.06;5027032;28;20056;-84
2022/04/19 12:20:06;;;;;;;5.10;2.00;;;;;;;39.40;5.28;100056.88;5024858;28;20052;-81
2022/04/19 12:22:50;;;;;;;4.13;1.75;;;;;;;41.46;4.27;100056.31;5036968;28;20048;-81
2022/04/19 12:25:36;;;;;;;6.35;2.10;;;;;;;39.41;5.34;100049.88;5032648;28;20045;-81
2022/04/19 12:28:20;;;;;;;4.80;1.70;;;;;;;39.90;5.30;100041.38;5030863;28;20044;-80
2022/04/19 12:31:05;;;;;;;4.32;1.83;;;;;;;37.83;5.96;100041.94;5022474;28;20045;-82
2022/04/19 12:33:54;;;;;;;4.57;2.22;;;;;;;38.02;6.06;100039.31;5032733;28;20048;-82
2022/04/19 12:36:48;;;;;;;3.15;2.00;;;;;;;37.11;6.94;100037.09;5040194;28;20044;-82
2022/04/19 12:39:33;;;;;;;9.80;2.78;;;;;;;36.80;6.67;100023.13;5049767;28;20048;-81
2022/04/19 12:42:18;;;;;;;6.13;2.72;;;;;;;36.34;6.85;100021.44;5037466;28;20049;-82
2022/04/19 12:45:08;;;;;;;4.78;2.60;;;;;;;37.00;6.27;100017.22;5020910;28;20052;-80
2022/04/19 12:47:57;;;;;;;4.82;3.30;;;;;;;36.38;7.34;100010.63;5019690;28;20044;-80
2022/04/19 12:50:42;;;;;;;5.18;2.08;;;;;;;37.93;6.24;100020.47;5037084;28;20049;-79
2022/04/19 12:53:27;;;;;;;7.68;2.33;;;;;;;37.55;6.26;100012.84;5022298;28;20524;-80
2022/04/19 12:56:51;;;;;;;4.65;2.60;;;;;;;36.41;6.94;99992.63;5011717;28;20524;-78
2022/04/19 12:59:37;;;;;;;4.28;2.90;;;;;;;35.51;7.16;99999.09;5036739;28;20040;-81
2022/04/19 13:02:21;;;;;;;11.02;3.03;;;;;;;37.73;6.44;99998.09;5019713;28;20057;-80
2022/04/19 13:05:07;;;;;;;3.45;2.10;;;;;;;39.00;5.63;99995.13;5024815;28;20053;-81
2022/04/19 13:13:58;;;;;;;5.63;2.63;;;;;;;35.95;7.61;99969.53;5002523;28;20466;-80
2022/04/19 13:16:43;;;;;;;3.88;2.85;;;;;;;33.51;8.61;99972.31;5021604;28;20406;-80
2022/04/19 13:19:28;;;;;;;3.75;2.65;;;;;;;33.50;8.84;99967.94;5024197;28;20417;-81
2022/04/19 13:22:14;;;;;;;3.83;2.60;;;;;;;33.32;9.28;99956.13;5033280;28;20052;-80
2022/04/19 13:24:59;;;;;;;4.05;2.90;;;;;;;33.61;8.60;99955.25;5020482;28;20052;-80
2022/04/19 13:27:44;;;;;;;5.88;3.33;;;;;;;32.81;9.09;99948.13;5023288;28;20052;-80
2022/04/19 13:30:30;;;;;;;7.72;2.90;;;;;;;28.88;12.23;99939.16;5022100;28;20052;-80
2022/04/19 13:33:15;;;;;;;7.82;2.97;;;;;;;27.34;13.25;99925.41;5019413;28;20060;-80
2022/04/19 13:36:00;;;;;;;4.72;2.97;;;;;;;27.87;13.49;99923.66;5023672;28;20052;-77
2022/04/19 13:38:45;;;;;;;8.02;3.42;;;;;;;25.63;14.58;99914.03;5021180;28;20052;-78
2022/04/19 13:41:30;;;;;;;7.35;3.33;;;;;;;25.61;15.14;99900.56;5032235;28;20441;-81
2022/04/19 13:44:15;;;;;;;4.95;3.17;;;;;;;24.82;15.35;99902.81;5032919;28;20056;-80
2022/04/19 13:46:59;;;;;;;5.53;3.38;;;;;;;24.63;15.88;99902.44;5032738;28;20426;-80
2022/04/19 13:49:44;;;;;;;3.88;2.90;;;;;;;24.70;16.02;99893.94;5019399;28;20056;-79
2022/04/19 13:52:29;;;;;;;5.38;3.25;;;;;;;24.14;16.81;99897.88;5014302;28;20052;-79
2022/04/19 13:55:18;;;;;;;7.60;3.28;;;;;;;24.12;16.59;99894.75;5029569;28;20052;-77
2022/04/19 13:58:03;;;;;;;3.90;2.83;;;;;;;23.94;17.09;99891.50;5018453;28;20052;-80
2022/04/19 14:00:47;;;;;;;7.95;3.40;;;;;;;23.55;17.24;99890.25;5032092;28;20049;-80
2022/04/19 14:03:32;;;;;;;8.18;3.80;;;;;;;23.61;17.18;99880.22;5032677;28;20055;-81